Time;durP1;ratioP1;P1;durP2;ratioP2;P2;SDS_P1;SDS_P2;PMS_P1;PMS_P2;Temp;Humidity;BMP_temperature;BMP_pressure;BME280_temperature;BME280_humidity;BME280_pressure;Samples;Min_cycle;Max_cycle;Signal;HPM_P1;HPM_P2
2023/07/18 00:00:33;;;;;;;4.80;1.58;;;;;;;;;;4930628;28;20714;-68
2023/07/18 00:02:58;;;;;;;4.43;1.40;;;;;;;;;;4929778;29;20276;-66
2023/07/18 00:05:23;;;;;;;6.35;2.03;;;;;;;;;;4933635;29;20197;-66
2023/07/18 00:07:49;;;;;;;4.47;1.50;;;;;;;;;;4933260;29;20181;-66
2023/07/18 00:10:18;;;;;;;3.47;1.58;;;;;;;;;;4936520;28;20718;-67
2023/07/18 00:12:43;;;;;;;4.78;1.42;;;;;;;;;;4932648;29;20200;-67
2023/07/18 00:15:09;;;;;;;6.88;1.35;;;;;;;;;;4938701;29;20576;-67
2023/07/18 00:17:35;;;;;;;2.75;1.13;;;;;;;;;;4942329;28;20195;-67
2023/07/18 00:20:00;;;;;;;9.75;1.98;;;;;;;;;;4940416;28;20307;-67
2023/07/18 00:22:26;;;;;;;8.93;1.83;;;;;;;;;;4938203;29;20717;-67
2023/07/18 00:24:51;;;;;;;2.95;1.70;;;;;;;;;;4932952;29;20189;-67
2023/07/18 00:27:16;;;;;;;4.55;1.27;;;;;;;;;;4934633;28;20182;-68
2023/07/18 00:29:42;;;;;;;4.50;1.70;;;;;;;;;;4950449;23;20231;-71
2023/07/18 00:32:07;;;;;;;2.85;1.60;;;;;;;;;;4964641;28;20859;-71
2023/07/18 00:34:32;;;;;;;5.15;1.38;;;;;;;;;;4965359;28;20691;-71
2023/07/18 00:36:57;;;;;;;10.98;1.65;;;;;;;;;;4965473;28;20188;-71
2023/07/18 00:39:23;;;;;;;5.47;1.58;;;;;;;;;;4964461;28;20270;-71
2023/07/18 00:41:49;;;;;;;2.40;1.27;;;;;;;;;;4946959;28;20252;-71
2023/07/18 00:44:14;;;;;;;6.57;1.42;;;;;;;;;;4947125;28;20181;-71
2023/07/18 00:46:39;;;;;;;3.03;1.42;;;;;;;;;;4950225;28;20191;-72
2023/07/18 00:49:04;;;;;;;5.63;1.65;;;;;;;;;;4952499;28;20189;-72
2023/07/18 00:51:30;;;;;;;4.60;1.50;;;;;;;;;;4947603;28;20247;-72
2023/07/18 00:53:56;;;;;;;9.90;1.92;;;;;;;;;;4951689;28;20204;-73
2023/07/18 00:56:22;;;;;;;5.70;2.38;;;;;;;;;;4944445;28;20200;-72
2023/07/18 00:58:47;;;;;;;4.32;1.15;;;;;;;;;;4948601;28;20209;-71
2023/07/18 01:01:13;;;;;;;5.45;1.80;;;;;;;;;;4944318;28;20285;-71
2023/07/18 01:03:39;;;;;;;9.10;1.73;;;;;;;;;;4944596;28;20189;-71
2023/07/18 01:06:05;;;;;;;3.47;2.00;;;;;;;;;;4946016;28;20275;-72
2023/07/18 01:08:30;;;;;;;5.60;2.03;;;;;;;;;;4946305;28;20710;-72
2023/07/18 01:10:55;;;;;;;2.75;1.30;;;;;;;;;;4947575;28;20303;-71
2023/07/18 01:13:20;;;;;;;4.65;1.67;;;;;;;;;;4949473;28;20737;-72
2023/07/18 01:15:46;;;;;;;5.10;1.95;;;;;;;;;;4950143;28;20271;-72
2023/07/18 01:18:13;;;;;;;6.63;1.83;;;;;;;;;;4946618;28;20212;-72
2023/07/18 01:20:38;;;;;;;6.70;2.25;;;;;;;;;;4954322;28;20743;-71
2023/07/18 01:23:03;;;;;;;5.15;1.70;;;;;;;;;;4949432;28;20231;-72
2023/07/18 01:25:30;;;;;;;6.13;2.20;;;;;;;;;;4951131;28;20546;-72
2023/07/18 01:27:55;;;;;;;5.45;1.83;;;;;;;;;;4951595;28;20182;-72
2023/07/18 01:30:22;;;;;;;4.38;2.47;;;;;;;;;;4951348;28;20306;-71
2023/07/18 01:32:50;;;;;;;5.43;2.20;;;;;;;;;;4951010;28;20210;-72
2023/07/18 01:35:17;;;;;;;5.43;2.58;;;;;;;;;;4947079;28;20189;-72
2023/07/18 01:37:44;;;;;;;4.80;2.08;;;;;;;;;;4951039;28;20311;-72
2023/07/18 01:40:12;;;;;;;6.40;1.85;;;;;;;;;;4949117;28;20216;-71
2023/07/18 01:42:38;;;;;;;4.93;2.17;;;;;;;;;;4950431;28;20202;-72
2023/07/18 01:45:03;;;;;;;5.05;2.30;;;;;;;;;;4951871;28;20612;-72
2023/07/18 01:47:31;;;;;;;4.20;1.63;;;;;;;;;;4950086;28;20870;-72
2023/07/18 01:49:57;;;;;;;5.13;2.30;;;;;;;;;;4951625;28;20204;-73
2023/07/18 01:52:22;;;;;;;4.28;1.88;;;;;;;;;;4950747;28;20187;-72
2023/07/18 01:54:47;;;;;;;6.22;2.08;;;;;;;;;;4950268;28;20188;-72
2023/07/18 01:57:12;;;;;;;6.07;2.05;;;;;;;;;;4949354;28;20188;-72
2023/07/18 01:59:38;;;;;;;7.55;2.35;;;;;;;;;;4951383;28;20216;-71
2023/07/18 02:02:06;;;;;;;8.35;2.85;;;;;;;;;;4948732;28;20283;-71
2023/07/18 02:04:31;;;;;;;7.88;2.05;;;;;;;;;;4946967;28;20216;-71
2023/07/18 02:06:56;;;;;;;5.53;2.15;;;;;;;;;;4951166;28;20280;-71
2023/07/18 02:09:23;;;;;;;4.65;2.08;;;;;;;;;;4949713;28;20223;-72
2023/07/18 02:11:48;;;;;;;3.35;1.67;;;;;;;;;;4949090;28;20213;-71
2023/07/18 02:14:19;;;;;;;4.28;1.83;;;;;;;;;;4948750;28;20211;-72
2023/07/18 02:16:44;;;;;;;2.95;1.95;;;;;;;;;;4950048;28;20267;-71
2023/07/18 02:19:09;;;;;;;4.07;2.25;;;;;;;;;;4949732;28;20291;-71
2023/07/18 02:21:35;;;;;;;4.95;2.00;;;;;;;;;;4951303;28;20201;-71
2023/07/18 02:24:00;;;;;;;3.47;1.90;;;;;;;;;;4945166;28;20195;-71
2023/07/18 02:26:26;;;;;;;9.00;2.58;;;;;;;;;;4946932;28;20857;-71
2023/07/18 02:28:51;;;;;;;5.00;2.13;;;;;;;;;;4947125;28;20646;-72
2023/07/18 02:31:16;;;;;;;4.97;1.90;;;;;;;;;;4947429;28;20227;-71
2023/07/18 02:33:42;;;;;;;6.05;2.22;;;;;;;;;;4945460;28;20196;-71
2023/07/18 02:36:08;;;;;;;6.00;2.05;;;;;;;;;;4946437;28;20255;-71
2023/07/18 02:38:33;;;;;;;1.88;1.60;;;;;;;;;;4946325;28;20215;-72
2023/07/18 02:40:58;;;;;;;5.13;2.00;;;;;;;;;;4946090;28;20304;-71
2023/07/18 02:43:24;;;;;;;6.75;2.22;;;;;;;;;;4947085;28;20216;-71
2023/07/18 02:45:49;;;;;;;4.25;2.17;;;;;;;;;;4947182;28;20184;-71
2023/07/18 02:48:14;;;;;;;4.68;2.25;;;;;;;;;;4944396;28;20224;-71
2023/07/18 02:50:40;;;;;;;5.55;2.42;;;;;;;;;;4942818;28;20254;-72
2023/07/18 02:53:05;;;;;;;5.95;2.30;;;;;;;;;;4947284;28;20184;-72
2023/07/18 02:55:31;;;;;;;5.85;2.30;;;;;;;;;;4950361;28;20185;-72
2023/07/18 02:57:57;;;;;;;3.55;2.20;;;;;;;;;;4951199;28;20193;-72
2023/07/18 03:00:25;;;;;;;8.18;2.60;;;;;;;;;;4950362;28;20731;-72
2023/07/18 03:02:51;;;;;;;4.78;2.50;;;;;;;;;;4947525;28;20231;-71
2023/07/18 03:05:17;;;;;;;4.88;2.22;;;;;;;;;;4944405;28;20188;-72
2023/07/18 03:07:43;;;;;;;6.90;2.63;;;;;;;;;;4943313;28;20244;-72
2023/07/18 03:10:08;;;;;;;6.38;2.80;;;;;;;;;;4949546;28;20917;-73
2023/07/18 03:12:33;;;;;;;6.80;2.42;;;;;;;;;;4941043;28;20196;-71
2023/07/18 03:14:59;;;;;;;5.88;2.47;;;;;;;;;;4943686;28;20663;-72
2023/07/18 03:17:24;;;;;;;7.55;3.15;;;;;;;;;;4943614;28;20192;-72
2023/07/18 03:19:49;;;;;;;7.97;3.88;;;;;;;;;;4946428;28;20896;-72
2023/07/18 03:22:14;;;;;;;8.02;2.10;;;;;;;;;;4946971;28;20263;-72
2023/07/18 03:24:40;;;;;;;4.88;2.90;;;;;;;;;;4944381;28;20208;-72
2023/07/18 03:27:05;;;;;;;8.07;3.42;;;;;;;;;;4945832;28;20236;-72
2023/07/18 03:29:31;;;;;;;5.85;2.33;;;;;;;;;;4949713;28;20196;-72
2023/07/18 03:31:59;;;;;;;4.80;2.70;;;;;;;;;;4947592;28;20286;-72
2023/07/18 03:34:24;;;;;;;7.47;2.90;;;;;;;;;;4947102;28;20318;-72
2023/07/18 03:36:49;;;;;;;6.80;2.72;;;;;;;;;;4946532;28;20192;-72
2023/07/18 03:39:15;;;;;;;6.05;2.25;;;;;;;;;;4948206;28;20278;-72
2023/07/18 03:41:41;;;;;;;5.55;2.40;;;;;;;;;;4946592;28;20212;-72
2023/07/18 03:44:06;;;;;;;4.85;2.58;;;;;;;;;;4946946;28;20195;-72
2023/07/18 03:46:32;;;;;;;4.93;2.47;;;;;;;;;;4945873;28;20215;-71
2023/07/18 03:48:57;;;;;;;5.35;2.70;;;;;;;;;;4947448;28;20192;-71
2023/07/18 03:51:22;;;;;;;4.22;2.22;;;;;;;;;;4945888;28;20216;-72
2023/07/18 03:53:47;;;;;;;6.00;3.25;;;;;;;;;;4948487;28;20197;-72
2023/07/18 03:56:13;;;;;;;5.05;2.35;;;;;;;;;;4945751;28;20197;-72
2023/07/18 03:58:38;;;;;;;4.38;1.88;;;;;;;;;;4948653;28;20192;-72
2023/07/18 04:01:08;;;;;;;5.20;2.58;;;;;;;;;;4948091;28;20291;-72
2023/07/18 04:03:34;;;;;;;9.10;2.63;;;;;;;;;;4948213;28;20188;-72
2023/07/18 04:05:59;;;;;;;3.85;2.03;;;;;;;;;;4942633;28;20678;-71
2023/07/18 04:08:24;;;;;;;6.85;2.35;;;;;;;;;;4948170;28;20184;-72
2023/07/18 04:10:49;;;;;;;6.18;3.22;;;;;;;;;;4950019;28;20211;-72
2023/07/18 04:13:15;;;;;;;6.60;2.53;;;;;;;;;;4945300;28;20232;-72
2023/07/18 04:15:40;;;;;;;6.88;2.63;;;;;;;;;;4949305;28;20184;-72
2023/07/18 04:18:05;;;;;;;5.75;2.42;;;;;;;;;;4945779;28;20197;-71
2023/07/18 04:20:31;;;;;;;4.65;2.35;;;;;;;;;;4947707;28;20228;-72
2023/07/18 04:22:57;;;;;;;5.45;2.00;;;;;;;;;;4943995;28;20191;-72
2023/07/18 04:25:23;;;;;;;5.25;2.17;;;;;;;;;;4947418;28;20228;-72
2023/07/18 04:27:48;;;;;;;9.90;2.55;;;;;;;;;;4958371;28;20276;-72
2023/07/18 04:30:13;;;;;;;8.32;2.97;;;;;;;;;;4941420;28;20225;-72
2023/07/18 04:32:41;;;;;;;4.97;2.70;;;;;;;;;;4941969;28;20193;-71
2023/07/18 04:35:07;;;;;;;6.50;2.30;;;;;;;;;;4941231;28;20192;-72
2023/07/18 04:37:33;;;;;;;7.72;2.58;;;;;;;;;;4942440;28;20189;-72
2023/07/18 04:39:58;;;;;;;5.90;2.53;;;;;;;;;;4942746;28;20701;-72
2023/07/18 04:42:23;;;;;;;4.47;2.40;;;;;;;;;;4942058;28;20195;-72
2023/07/18 04:44:48;;;;;;;6.40;2.72;;;;;;;;;;4943267;28;20197;-72
2023/07/18 04:47:14;;;;;;;3.92;1.85;;;;;;;;;;4940604;28;20188;-72
2023/07/18 04:49:39;;;;;;;5.95;2.05;;;;;;;;;;4942382;28;20189;-72
2023/07/18 04:52:04;;;;;;;4.72;2.13;;;;;;;;;;4942090;28;20968;-72
2023/07/18 04:54:30;;;;;;;4.45;2.33;;;;;;;;;;4942422;28;20241;-72
2023/07/18 04:56:55;;;;;;;5.30;2.08;;;;;;;;;;4945083;28;20196;-72
2023/07/18 04:59:21;;;;;;;6.88;2.35;;;;;;;;;;4949769;28;20211;-72
2023/07/18 05:01:46;;;;;;;3.92;3.38;;;;;;;;;;4951113;28;20209;-73
2023/07/18 05:04:11;;;;;;;6.60;2.42;;;;;;;;;;4950782;28;20196;-71
2023/07/18 05:06:36;;;;;;;4.65;2.33;;;;;;;;;;4951260;28;20220;-71
2023/07/18 05:09:03;;;;;;;3.55;2.13;;;;;;;;;;4952659;28;20224;-71
2023/07/18 05:11:28;;;;;;;6.75;2.35;;;;;;;;;;4951661;28;20217;-71
2023/07/18 05:13:53;;;;;;;4.43;2.20;;;;;;;;;;4953030;28;20188;-71
2023/07/18 05:16:19;;;;;;;3.75;2.35;;;;;;;;;;4952311;28;20185;-71
2023/07/18 05:18:44;;;;;;;5.30;2.30;;;;;;;;;;4951316;28;20667;-71
2023/07/18 05:21:09;;;;;;;5.45;2.67;;;;;;;;;;4951194;28;20212;-71
2023/07/18 05:23:34;;;;;;;5.00;2.45;;;;;;;;;;4948845;28;20191;-71
2023/07/18 05:25:59;;;;;;;5.55;2.75;;;;;;;;;;4950076;28;20180;-71
2023/07/18 05:28:25;;;;;;;10.60;3.15;;;;;;;;;;4948397;28;20187;-73
2023/07/18 05:30:50;;;;;;;5.90;2.38;;;;;;;;;;4948459;28;20219;-72
2023/07/18 05:33:15;;;;;;;9.35;2.60;;;;;;;;;;4964012;28;20184;-72
2023/07/18 05:35:40;;;;;;;3.63;1.60;;;;;;;;;;4950940;28;20193;-72
2023/07/18 05:38:06;;;;;;;6.82;2.40;;;;;;;;;;4951583;28;20631;-72
2023/07/18 05:40:31;;;;;;;5.22;2.28;;;;;;;;;;4949211;28;20320;-72
2023/07/18 05:42:57;;;;;;;3.78;2.00;;;;;;;;;;4947853;28;21062;-71
2023/07/18 05:45:22;;;;;;;5.75;3.28;;;;;;;;;;4948925;28;20196;-71
2023/07/18 05:47:47;;;;;;;7.53;3.72;;;;;;;;;;4946724;28;20208;-71
2023/07/18 05:50:12;;;;;;;5.88;2.65;;;;;;;;;;4951891;28;20303;-71
2023/07/18 05:52:38;;;;;;;6.45;2.30;;;;;;;;;;4951619;28;20670;-71
2023/07/18 05:55:04;;;;;;;7.30;2.78;;;;;;;;;;4951999;28;20688;-71
2023/07/18 05:57:29;;;;;;;11.15;3.40;;;;;;;;;;4950259;28;20189;-71
2023/07/18 05:59:54;;;;;;;5.97;2.97;;;;;;;;;;4950098;28;20227;-71
2023/07/18 06:02:21;;;;;;;5.55;3.05;;;;;;;;;;4946207;28;20845;-72
2023/07/18 06:04:47;;;;;;;5.70;2.72;;;;;;;;;;4949008;28;20181;-72
2023/07/18 06:07:12;;;;;;;9.48;3.63;;;;;;;;;;4945071;28;20184;-71
2023/07/18 06:09:37;;;;;;;7.70;2.60;;;;;;;;;;4944952;28;20270;-72
2023/07/18 06:12:03;;;;;;;14.02;3.83;;;;;;;;;;4945099;28;20191;-71
2023/07/18 06:14:28;;;;;;;6.72;2.63;;;;;;;;;;4943153;28;20275;-71
2023/07/18 06:16:53;;;;;;;5.70;2.80;;;;;;;;;;4947427;28;20658;-72
2023/07/18 06:19:19;;;;;;;8.05;2.85;;;;;;;;;;4945874;28;20277;-72
2023/07/18 06:21:44;;;;;;;6.35;3.53;;;;;;;;;;4946447;28;20224;-71
2023/07/18 06:24:10;;;;;;;8.88;3.65;;;;;;;;;;4945380;28;20673;-72
2023/07/18 06:26:35;;;;;;;12.80;4.68;;;;;;;;;;4945195;28;20192;-72
2023/07/18 06:29:00;;;;;;;9.38;3.42;;;;;;;;;;4945028;28;20671;-71
2023/07/18 06:31:26;;;;;;;13.13;3.45;;;;;;;;;;4962013;23;20618;-67
2023/07/18 06:33:51;;;;;;;8.38;3.92;;;;;;;;;;4950788;28;20196;-67
2023/07/18 06:36:16;;;;;;;7.38;4.43;;;;;;;;;;4949825;28;20192;-68
2023/07/18 06:38:42;;;;;;;8.75;3.72;;;;;;;;;;4950480;28;20273;-67
2023/07/18 06:41:07;;;;;;;13.82;4.68;;;;;;;;;;4943680;28;20649;-67
2023/07/18 06:43:32;;;;;;;12.20;5.10;;;;;;;;;;4935801;28;20181;-67
2023/07/18 06:45:58;;;;;;;13.93;4.90;;;;;;;;;;4939190;29;20397;-66
2023/07/18 06:48:23;;;;;;;12.73;4.35;;;;;;;;;;4940468;28;20605;-67
2023/07/18 06:50:49;;;;;;;11.52;4.60;;;;;;;;;;4938370;29;20224;-67
2023/07/18 06:53:18;;;;;;;11.82;4.10;;;;;;;;;;4937969;29;20236;-68
2023/07/18 06:55:44;;;;;;;12.40;4.50;;;;;;;;;;4935827;29;20189;-67
2023/07/18 06:58:09;;;;;;;11.23;4.43;;;;;;;;;;4938683;28;20211;-68
2023/07/18 07:00:35;;;;;;;14.23;5.53;;;;;;;;;;4938396;28;20418;-65
2023/07/18 07:03:00;;;;;;;14.05;5.07;;;;;;;;;;4933436;29;20264;-66
2023/07/18 07:05:25;;;;;;;12.52;4.93;;;;;;;;;;4939439;29;20189;-67
2023/07/18 07:07:51;;;;;;;12.77;4.70;;;;;;;;;;4940437;28;20256;-67
2023/07/18 07:10:16;;;;;;;12.52;4.78;;;;;;;;;;4940228;28;20231;-66
2023/07/18 07:12:42;;;;;;;12.65;5.13;;;;;;;;;;4939210;29;20191;-67
2023/07/18 07:15:07;;;;;;;13.32;5.80;;;;;;;;;;4939816;29;20192;-67
2023/07/18 07:17:32;;;;;;;10.20;4.70;;;;;;;;;;4938297;29;20524;-67
2023/07/18 07:19:58;;;;;;;11.13;4.82;;;;;;;;;;4931559;28;20697;-66
2023/07/18 07:22:23;;;;;;;13.98;5.63;;;;;;;;;;4915781;28;20209;-67
2023/07/18 07:24:48;;;;;;;11.27;5.05;;;;;;;;;;4917772;29;20185;-66
2023/07/18 07:27:13;;;;;;;12.25;5.32;;;;;;;;;;4921535;29;20185;-66
2023/07/18 07:29:42;;;;;;;11.52;5.15;;;;;;;;;;4916557;29;20283;-66
2023/07/18 07:32:07;;;;;;;13.38;5.45;;;;;;;;;;4919091;28;20307;-66
2023/07/18 07:34:32;;;;;;;11.55;5.07;;;;;;;;;;4918921;29;20221;-67
2023/07/18 07:36:58;;;;;;;14.15;5.95;;;;;;;;;;4916631;29;20189;-67
2023/07/18 07:39:23;;;;;;;11.20;4.90;;;;;;;;;;4919449;28;20295;-67
2023/07/18 07:41:48;;;;;;;14.52;5.30;;;;;;;;;;4919129;28;20224;-67
2023/07/18 07:44:13;;;;;;;11.07;4.70;;;;;;;;;;4920294;28;20285;-67
2023/07/18 07:46:39;;;;;;;9.25;4.85;;;;;;;;;;4917564;29;20948;-67
2023/07/18 07:49:04;;;;;;;12.35;5.45;;;;;;;;;;4914607;29;20196;-68
2023/07/18 07:51:29;;;;;;;13.77;4.88;;;;;;;;;;4931069;28;20272;-67
2023/07/18 07:53:54;;;;;;;9.82;4.70;;;;;;;;;;4939593;28;20705;-68
2023/07/18 07:56:20;;;;;;;11.18;4.65;;;;;;;;;;4933552;29;20579;-67
2023/07/18 07:58:45;;;;;;;9.40;4.28;;;;;;;;;;4937593;28;20192;-68
2023/07/18 08:01:10;;;;;;;9.18;4.07;;;;;;;;;;4939187;28;20687;-67
2023/07/18 08:03:36;;;;;;;16.98;4.57;;;;;;;;;;4936548;28;20189;-65
2023/07/18 08:06:01;;;;;;;9.32;3.85;;;;;;;;;;4940461;29;20272;-67
2023/07/18 08:08:26;;;;;;;16.77;4.97;;;;;;;;;;4938258;29;20671;-65
2023/07/18 08:10:52;;;;;;;14.85;3.53;;;;;;;;;;4936966;28;21122;-66
2023/07/18 08:13:18;;;;;;;10.88;3.90;;;;;;;;;;4934194;29;20284;-66
2023/07/18 08:15:43;;;;;;;9.00;4.13;;;;;;;;;;4937217;29;20265;-66
2023/07/18 08:18:08;;;;;;;10.77;3.95;;;;;;;;;;4936545;29;20224;-67
2023/07/18 08:20:33;;;;;;;8.60;3.60;;;;;;;;;;4939663;28;20321;-67
2023/07/18 08:22:59;;;;;;;7.20;3.53;;;;;;;;;;4938216;29;20181;-66
2023/07/18 08:25:24;;;;;;;7.38;3.13;;;;;;;;;;4938782;29;20676;-69
2023/07/18 08:27:49;;;;;;;10.20;2.80;;;;;;;;;;4938261;28;20995;-66
2023/07/18 08:30:14;;;;;;;6.43;3.30;;;;;;;;;;4934942;29;20964;-66
2023/07/18 08:32:40;;;;;;;11.15;3.28;;;;;;;;;;4934287;29;20227;-66
2023/07/18 08:35:06;;;;;;;9.23;2.95;;;;;;;;;;4939895;28;20197;-66
2023/07/18 08:37:31;;;;;;;6.50;2.53;;;;;;;;;;4942142;29;20195;-65
2023/07/18 08:39:56;;;;;;;6.07;2.33;;;;;;;;;;4941592;28;20209;-67
2023/07/18 08:42:24;;;;;;;8.87;2.70;;;;;;;;;;4940507;28;20204;-66
2023/07/18 08:44:50;;;;;;;6.13;2.58;;;;;;;;;;4943008;29;20461;-66
2023/07/18 08:47:16;;;;;;;18.40;3.60;;;;;;;;;;4937052;29;20280;-66
2023/07/18 08:49:41;;;;;;;6.05;3.10;;;;;;;;;;4939384;29;21097;-66
2023/07/18 08:52:06;;;;;;;17.50;4.82;;;;;;;;;;4941343;28;20210;-68
2023/07/18 08:54:33;;;;;;;5.60;2.50;;;;;;;;;;4941853;29;20231;-66
2023/07/18 08:56:59;;;;;;;9.38;2.80;;;;;;;;;;4940535;28;20188;-66
2023/07/18 08:59:24;;;;;;;7.00;3.03;;;;;;;;;;4942896;29;20275;-66
2023/07/18 09:01:50;;;;;;;8.40;3.15;;;;;;;;;;4942703;28;20589;-67
2023/07/18 09:04:15;;;;;;;6.28;2.80;;;;;;;;;;4938936;29;20580;-67
2023/07/18 09:06:57;;;;;;;14.68;3.70;;;;;;;;;;4942662;28;20177;-67
2023/07/18 09:09:23;;;;;;;9.60;2.80;;;;;;;;;;4941160;29;20247;-67
2023/07/18 09:11:58;;;;;;;8.15;3.15;;;;;;;;;;4942327;28;20205;-67
2023/07/18 09:14:28;;;;;;;9.00;2.92;;;;;;;;;;4941301;29;20631;-67
2023/07/18 09:16:54;;;;;;;6.47;2.78;;;;;;;;;;4942249;28;20193;-67
2023/07/18 09:19:20;;;;;;;19.90;2.63;;;;;;;;;;4941790;28;20212;-67
2023/07/18 09:21:45;;;;;;;6.72;3.20;;;;;;;;;;4939085;28;20568;-67
2023/07/18 09:24:10;;;;;;;6.55;2.60;;;;;;;;;;4940949;29;20194;-66
2023/07/18 09:26:35;;;;;;;7.30;2.60;;;;;;;;;;4942975;28;20185;-67
2023/07/18 09:29:08;;;;;;;6.63;2.87;;;;;;;;;;4940675;29;20224;-66
2023/07/18 09:31:33;;;;;;;8.05;3.13;;;;;;;;;;4941801;29;20505;-66
2023/07/18 09:33:59;;;;;;;9.73;2.70;;;;;;;;;;4939631;28;20193;-67
2023/07/18 09:36:24;;;;;;;10.43;2.88;;;;;;;;;;4940263;29;21344;-67
2023/07/18 09:38:50;;;;;;;6.72;2.50;;;;;;;;;;4936093;29;20212;-67
2023/07/18 09:41:16;;;;;;;8.77;3.60;;;;;;;;;;4939381;29;20209;-66
2023/07/18 09:43:43;;;;;;;9.57;3.35;;;;;;;;;;4940613;29;20612;-66
2023/07/18 09:46:10;;;;;;;9.77;3.50;;;;;;;;;;4940727;28;20252;-66
2023/07/18 09:48:36;;;;;;;6.38;2.38;;;;;;;;;;4941098;28;20255;-66
2023/07/18 09:51:03;;;;;;;6.25;2.10;;;;;;;;;;4942236;28;20674;-67
2023/07/18 09:53:29;;;;;;;5.45;2.38;;;;;;;;;;4940622;29;21059;-67
2023/07/18 09:55:55;;;;;;;11.88;3.03;;;;;;;;;;4940889;28;20208;-66
2023/07/18 09:58:21;;;;;;;5.88;2.88;;;;;;;;;;4940373;29;20193;-67
2023/07/18 10:00:47;;;;;;;6.35;2.33;;;;;;;;;;4941854;28;20212;-66
2023/07/18 10:03:12;;;;;;;4.97;2.72;;;;;;;;;;4939623;29;20189;-67
2023/07/18 10:05:37;;;;;;;5.65;2.47;;;;;;;;;;4938494;29;20252;-66
2023/07/18 10:08:04;;;;;;;6.15;2.28;;;;;;;;;;4939911;29;20181;-65
2023/07/18 10:10:30;;;;;;;7.70;1.73;;;;;;;;;;4939400;28;20705;-65
2023/07/18 10:12:55;;;;;;;6.38;1.75;;;;;;;;;;4939237;29;20189;-65
2023/07/18 10:15:20;;;;;;;7.27;1.90;;;;;;;;;;4937290;29;20185;-65
2023/07/18 10:17:47;;;;;;;6.32;1.80;;;;;;;;;;4941165;29;20451;-66
2023/07/18 10:20:12;;;;;;;5.70;1.80;;;;;;;;;;4939840;28;20203;-66
2023/07/18 10:22:45;;;;;;;3.75;1.75;;;;;;;;;;4939890;29;20779;-66
2023/07/18 10:25:11;;;;;;;4.93;1.80;;;;;;;;;;4939002;29;20186;-67
2023/07/18 10:27:41;;;;;;;3.63;1.70;;;;;;;;;;4939625;29;20203;-67
2023/07/18 10:30:08;;;;;;;4.55;1.90;;;;;;;;;;4941503;28;20241;-66
2023/07/18 10:32:33;;;;;;;3.38;1.58;;;;;;;;;;4934992;29;20196;-66
2023/07/18 10:34:59;;;;;;;4.28;1.65;;;;;;;;;;4937663;29;20247;-66
2023/07/18 10:37:26;;;;;;;2.00;1.60;;;;;;;;;;4939779;29;20181;-66
2023/07/18 10:39:52;;;;;;;7.55;2.60;;;;;;;;;;4940340;28;20209;-66
2023/07/18 10:42:20;;;;;;;5.80;2.00;;;;;;;;;;4939059;28;20237;-66
2023/07/18 10:44:52;;;;;;;6.30;2.35;;;;;;;;;;4938258;29;20239;-67
2023/07/18 10:47:17;;;;;;;6.80;2.22;;;;;;;;;;4938272;29;20192;-65
2023/07/18 10:49:44;;;;;;;6.88;2.80;;;;;;;;;;4934193;29;20607;-65
2023/07/18 10:52:10;;;;;;;4.18;1.95;;;;;;;;;;4937960;28;20204;-66
2023/07/18 10:54:35;;;;;;;3.85;1.42;;;;;;;;;;4920412;28;20197;-65
2023/07/18 10:57:01;;;;;;;3.65;1.00;;;;;;;;;;4924425;28;20280;-66
2023/07/18 10:59:26;;;;;;;3.10;2.00;;;;;;;;;;4937982;29;20201;-66
2023/07/18 11:01:51;;;;;;;6.20;1.67;;;;;;;;;;4940255;28;20682;-66
2023/07/18 11:04:17;;;;;;;2.67;1.70;;;;;;;;;;4939187;29;20272;-67
2023/07/18 11:06:55;;;;;;;4.38;2.10;;;;;;;;;;4940723;29;20701;-67
2023/07/18 11:09:20;;;;;;;4.35;1.88;;;;;;;;;;4938311;28;20189;-66
2023/07/18 11:11:46;;;;;;;2.72;1.38;;;;;;;;;;4938688;28;20703;-67
2023/07/18 11:14:12;;;;;;;3.75;1.73;;;;;;;;;;4935309;29;20216;-67
2023/07/18 11:16:37;;;;;;;1.83;1.40;;;;;;;;;;4937970;28;20323;-67
2023/07/18 11:19:05;;;;;;;4.40;1.87;;;;;;;;;;4937568;29;20280;-67
2023/07/18 11:21:30;;;;;;;7.50;1.67;;;;;;;;;;4938311;28;20522;-67
2023/07/18 11:23:56;;;;;;;3.22;1.80;;;;;;;;;;4938931;29;20563;-67
2023/07/18 11:26:21;;;;;;;4.95;1.75;;;;;;;;;;4939704;29;20185;-67
2023/07/18 11:28:50;;;;;;;4.80;2.20;;;;;;;;;;4936446;29;20193;-68
2023/07/18 11:31:38;;;;;;;4.97;2.45;;;;;;;;;;4938676;28;20483;-67
2023/07/18 11:34:05;;;;;;;3.17;2.30;;;;;;;;;;4938387;29;20699;-67
2023/07/18 11:36:31;;;;;;;4.53;2.17;;;;;;;;;;4940280;29;20243;-67
2023/07/18 11:39:14;;;;;;;3.83;2.38;;;;;;;;;;4938278;28;20185;-67
2023/07/18 11:41:40;;;;;;;2.20;1.70;;;;;;;;;;4939181;28;20280;-67
2023/07/18 11:44:06;;;;;;;6.03;2.28;;;;;;;;;;4932749;29;20199;-67
2023/07/18 11:46:47;;;;;;;6.03;2.58;;;;;;;;;;4937672;29;20196;-68
2023/07/18 11:49:12;;;;;;;3.88;1.80;;;;;;;;;;4937709;29;20201;-67
2023/07/18 11:51:39;;;;;;;2.30;1.33;;;;;;;;;;4939678;28;20283;-66
2023/07/18 11:54:04;;;;;;;4.68;1.80;;;;;;;;;;4939805;28;20185;-66
2023/07/18 11:56:30;;;;;;;8.02;2.13;;;;;;;;;;4938688;28;20571;-66
2023/07/18 11:58:55;;;;;;;2.55;1.10;;;;;;;;;;4939695;28;20185;-66
2023/07/18 12:01:21;;;;;;;2.43;1.10;;;;;;;;;;4933905;28;20734;-66
2023/07/18 12:03:46;;;;;;;2.95;1.50;;;;;;;;;;4938685;28;20423;-66
2023/07/18 12:06:11;;;;;;;3.22;1.55;;;;;;;;;;4938180;28;20208;-67
2023/07/18 12:08:37;;;;;;;2.80;0.90;;;;;;;;;;4939576;28;20201;-67
2023/07/18 12:11:03;;;;;;;2.28;0.88;;;;;;;;;;4942449;28;20213;-67
2023/07/18 12:13:28;;;;;;;3.90;1.33;;;;;;;;;;4940481;29;21129;-68
2023/07/18 12:15:54;;;;;;;1.83;1.00;;;;;;;;;;4941081;28;21623;-68
2023/07/18 12:18:20;;;;;;;1.90;0.77;;;;;;;;;;4939487;29;20706;-68
2023/07/18 12:20:45;;;;;;;2.67;1.23;;;;;;;;;;4941150;28;20466;-68
2023/07/18 12:23:10;;;;;;;3.97;1.10;;;;;;;;;;4942238;28;20573;-67
2023/07/18 12:25:36;;;;;;;5.00;1.40;;;;;;;;;;4943174;28;20853;-68
2023/07/18 12:28:03;;;;;;;3.13;1.83;;;;;;;;;;4941804;29;20276;-67
2023/07/18 12:32:58;;;;;;;2.63;1.27;;;;;;;;;;4968382;28;20266;-71
2023/07/18 12:35:24;;;;;;;4.78;1.45;;;;;;;;;;4971748;28;20271;-71
2023/07/18 12:37:49;;;;;;;3.63;1.90;;;;;;;;;;4968493;28;20206;-72
2023/07/18 12:40:17;;;;;;;3.43;1.80;;;;;;;;;;4967812;28;20219;-72
2023/07/18 12:42:42;;;;;;;3.30;1.95;;;;;;;;;;4951644;28;20461;-72
2023/07/18 12:45:07;;;;;;;4.68;2.13;;;;;;;;;;4951636;28;20173;-72
2023/07/18 12:47:33;;;;;;;3.25;1.30;;;;;;;;;;4951678;28;20196;-73
2023/07/18 12:49:58;;;;;;;3.23;1.43;;;;;;;;;;4951734;28;20290;-72
2023/07/18 12:52:23;;;;;;;4.93;1.60;;;;;;;;;;4950954;28;20453;-73
2023/07/18 12:54:48;;;;;;;4.20;1.40;;;;;;;;;;4948955;28;20440;-73
2023/07/18 12:57:13;;;;;;;4.50;1.30;;;;;;;;;;4951376;28;20438;-72
2023/07/18 12:59:39;;;;;;;2.00;1.40;;;;;;;;;;4952382;28;20467;-72
2023/07/18 13:02:04;;;;;;;2.50;1.20;;;;;;;;;;4952954;28;20620;-73
2023/07/18 13:04:29;;;;;;;3.38;1.17;;;;;;;;;;4952963;28;20575;-73
2023/07/18 13:06:55;;;;;;;4.55;1.50;;;;;;;;;;4952015;28;20189;-72
2023/07/18 13:09:20;;;;;;;6.47;1.52;;;;;;;;;;4951499;28;20627;-72
2023/07/18 13:11:46;;;;;;;2.95;1.30;;;;;;;;;;4951970;28;20228;-72
2023/07/18 13:14:13;;;;;;;3.00;1.17;;;;;;;;;;4948173;28;20591;-71
2023/07/18 13:16:38;;;;;;;1.92;1.00;;;;;;;;;;4949956;28;20196;-74
2023/07/18 13:19:04;;;;;;;3.15;1.50;;;;;;;;;;4951915;28;20220;-73
2023/07/18 13:21:29;;;;;;;2.42;1.05;;;;;;;;;;4949690;28;20678;-73
2023/07/18 13:23:55;;;;;;;3.03;1.42;;;;;;;;;;4953245;28;20198;-73
2023/07/18 13:26:21;;;;;;;1.15;0.85;;;;;;;;;;4953672;28;20695;-73
2023/07/18 13:28:46;;;;;;;2.00;1.10;;;;;;;;;;4950044;28;20181;-74
2023/07/18 13:31:11;;;;;;;2.15;1.08;;;;;;;;;;4953839;28;20239;-71
2023/07/18 13:33:38;;;;;;;1.08;0.80;;;;;;;;;;4948283;28;20523;-72
2023/07/18 13:36:04;;;;;;;2.63;1.25;;;;;;;;;;4952332;28;20560;-73
2023/07/18 13:38:30;;;;;;;2.03;1.25;;;;;;;;;;4952196;28;20192;-72
2023/07/18 13:40:55;;;;;;;4.80;1.20;;;;;;;;;;4952952;28;20267;-72
2023/07/18 13:43:20;;;;;;;2.95;1.15;;;;;;;;;;4952258;28;21261;-73
2023/07/18 13:45:45;;;;;;;2.30;1.00;;;;;;;;;;4953819;28;20564;-73
2023/07/18 13:48:11;;;;;;;3.90;1.43;;;;;;;;;;4953335;28;20411;-73
2023/07/18 13:50:37;;;;;;;3.75;0.88;;;;;;;;;;4947554;28;20441;-70
2023/07/18 13:53:02;;;;;;;3.20;0.90;;;;;;;;;;4951547;28;20579;-72
2023/07/18 13:55:27;;;;;;;2.67;1.10;;;;;;;;;;4967570;28;20204;-72
2023/07/18 13:57:53;;;;;;;4.25;1.15;;;;;;;;;;4951234;28;20441;-73
2023/07/18 14:00:18;;;;;;;3.60;1.00;;;;;;;;;;4952023;28;20709;-72
2023/07/18 14:02:43;;;;;;;3.75;0.60;;;;;;;;;;4949625;28;20210;-72
2023/07/18 14:05:09;;;;;;;2.42;0.80;;;;;;;;;;4951574;28;20180;-73
2023/07/18 14:07:35;;;;;;;2.30;0.80;;;;;;;;;;4952531;28;20199;-73
2023/07/18 14:10:00;;;;;;;1.05;0.68;;;;;;;;;;4953744;28;20445;-72
2023/07/18 14:12:25;;;;;;;2.65;1.02;;;;;;;;;;4949540;28;20290;-72
2023/07/18 14:14:50;;;;;;;2.05;0.95;;;;;;;;;;4949743;28;20192;-73
2023/07/18 14:17:16;;;;;;;4.38;1.10;;;;;;;;;;4951625;28;20581;-73
2023/07/18 14:19:41;;;;;;;3.50;1.02;;;;;;;;;;4948781;28;20231;-72
2023/07/18 14:22:06;;;;;;;2.70;1.10;;;;;;;;;;4963842;28;20220;-73
2023/07/18 14:24:31;;;;;;;2.13;1.00;;;;;;;;;;4950593;28;20442;-73
2023/07/18 14:26:57;;;;;;;1.40;0.80;;;;;;;;;;4950597;28;20184;-73
2023/07/18 14:29:22;;;;;;;1.70;1.13;;;;;;;;;;4952116;28;20206;-73
2023/07/18 14:31:48;;;;;;;2.73;0.90;;;;;;;;;;4951472;28;20816;-73
2023/07/18 14:34:13;;;;;;;1.63;0.88;;;;;;;;;;4951467;28;21147;-73